Tatitlek, AK (99677)

8:16 PM AKDT on October 01, 2014 (GMT -0800)
Valdez | Change Station
CLOSE
Current Station
Airport
Location: Valdez Airport,
Elevation: 121 ft
Nearby Weather Stations

Elev 121 ft 61.13 °N, 146.25 °W | Updated 20 minutes ago

Clear
Clear
43 °F
Feels Like 43 °F
N
0
Wind Variable Wind from North

Today
High -- | Low -- °F
--% Chance of Precip.
Yesterday
High -- | Low -- °F
Precip. -- in
7:55 AM 7:19 PM
First Quarter, 54% visible
Pressure 30.26 in
Visibility 10.0 miles
Clouds Clear
Dew Point 28 °F
Humidity 57%
Rainfall 0.00 in
Snow Depth 102 in , 2 in , 0 in
UV 0 out of 12
Pollen Not available.
Air Quality Not available.
Flu Activity Not available.
METAR PAVD 020356Z 00000KT 10SM CLR 06/M02 A3026 RMK AO1 0347Z WEA: NONE TWR WND 12003KT

More Conditions Fewer Conditions

Pressure 30.26 in
Visibility 10.0 miles
Clouds Clear
Dew Point 28 °F
Humidity 57%
Rainfall 0.00 in
Snow Depth 102 in , 2 in , 0 in
UV 0 out of 12
Pollen Not available.
Air Quality Not available.
Flu Activity Not available.
METAR PAVD 020356Z 00000KT 10SM CLR 06/M02 A3026 RMK AO1 0347Z WEA: NONE TWR WND 12003KT

More Conditions Fewer Conditions

10-Day Weather Forecast

Almanac

Astronomy

Oct. 01, 2014 Rise Set
Actual Time 7:55 AM AKDT 7:19 PM AKDT
Civil Twilight 7:12 AM AKDT 8:02 PM AKDT
Nautical Twilight 6:21 AM AKDT 8:52 PM AKDT
Astronomical Twilight 5:28 AM AKDT 9:45 PM AKDT
Moon 4:16 PM AKDT (10/1) 11:52 PM AKDT (10/1)
Length of Visible Light 12h 49m
Length of Day
11h 23m
Tomorrow will be 5m 38s shorter.
First Quarter, 54% of the Moon is Illuminated
Oct 2
First Quarter
Oct 8
Full
Oct 15
Last Quarter
Oct 23
New
Oct 30
First Quarter

Today's Extremes

State Highs State Lows

Community

WunderPhotos

Upload Photos

1,758,187 photos uploaded!

Nearby

Snow Depth

Station Depth Elevation
Atigun Pass 102 in 4800 ft
Little Chena Ridge 2 in 2000 ft
Upper Tsaina River 0 in 1750 ft
Upper Chena 6 in 2850 ft
Susitna Valley High 2 in 375 ft

Earthquake Activity

City Distance Mag. Time & Date
No recent earthquake activity has been reported nearby.
Minimum magnitude displayed is 2.5.

Coastal Water Temperatures

Place Temperature
No Stations Reporting

Nearby Weather Stations